createdAt,value
2018-03-15T00:01:55.795Z,4.43
2018-03-15T00:04:32.780Z,4.42
2018-03-15T00:07:03.833Z,4.39
2018-03-15T00:09:34.834Z,4.40
2018-03-15T00:12:05.869Z,4.41
2018-03-15T00:14:36.907Z,4.41
2018-03-15T00:17:07.888Z,4.41
2018-03-15T00:19:38.879Z,4.39
2018-03-15T00:22:09.901Z,4.35
2018-03-15T00:24:40.932Z,4.34
2018-03-15T00:27:11.954Z,4.29
2018-03-15T00:29:42.955Z,4.28
2018-03-15T00:32:13.933Z,4.28
2018-03-15T00:34:44.916Z,4.30
2018-03-15T00:37:15.928Z,4.31
2018-03-15T00:39:46.930Z,4.33
2018-03-15T00:42:17.928Z,4.35
2018-03-15T00:44:48.954Z,4.34
2018-03-15T00:47:19.965Z,4.30
2018-03-15T00:49:50.931Z,4.32
2018-03-15T00:52:21.914Z,4.31
2018-03-15T00:54:52.933Z,4.28
2018-03-15T00:57:23.966Z,4.27
2018-03-15T00:59:54.935Z,4.26
2018-03-15T01:02:26.001Z,4.25
2018-03-15T01:04:57.009Z,4.18
2018-03-15T01:07:28.024Z,4.15
2018-03-15T01:09:59.045Z,4.15
2018-03-15T01:12:30.051Z,4.09
2018-03-15T01:15:01.071Z,4.06
2018-03-15T01:17:32.086Z,4.00
2018-03-15T01:20:03.104Z,3.99
2018-03-15T01:22:34.104Z,3.99
2018-03-15T01:25:05.077Z,3.94
2018-03-15T01:27:36.069Z,3.92
2018-03-15T01:30:07.046Z,3.88
2018-03-15T01:32:38.030Z,3.84
2018-03-15T01:35:09.032Z,3.86
2018-03-15T01:37:39.978Z,3.86
2018-03-15T01:40:11.045Z,3.86
2018-03-15T01:42:42.049Z,3.80
2018-03-15T01:45:13.085Z,3.78
2018-03-15T01:47:44.076Z,3.76
2018-03-15T01:50:15.084Z,3.75
2018-03-15T01:52:46.093Z,3.74
2018-03-15T01:55:17.078Z,3.74
2018-03-15T01:57:48.070Z,3.74
2018-03-15T02:00:19.047Z,3.71
2018-03-15T02:02:50.048Z,3.70
2018-03-15T02:05:21.092Z,3.71
2018-03-15T02:07:52.093Z,3.75
2018-03-15T02:10:23.102Z,3.75
2018-03-15T02:12:54.096Z,3.77
2018-03-15T02:15:25.082Z,3.77
2018-03-15T02:17:56.072Z,3.76
2018-03-15T02:20:27.065Z,3.75
2018-03-15T02:22:58.059Z,3.74
2018-03-15T02:25:29.036Z,3.73
2018-03-15T02:28:00.038Z,3.74
2018-03-15T02:30:31.042Z,3.71
2018-03-15T02:33:02.032Z,3.69
2018-03-15T02:35:33.028Z,3.65
2018-03-15T02:38:04.002Z,3.68
2018-03-15T02:40:35.046Z,3.70
2018-03-15T02:43:06.045Z,3.71
2018-03-15T02:45:37.042Z,3.71
2018-03-15T02:48:14.883Z,3.74
2018-03-15T02:50:45.902Z,3.77
2018-03-15T02:53:16.901Z,3.85
2018-03-15T02:55:47.890Z,3.88
2018-03-15T02:58:18.884Z,3.91
2018-03-15T03:00:49.906Z,3.89
2018-03-15T03:03:20.874Z,4.00
2018-03-15T03:05:52.274Z,3.97
2018-03-15T03:08:23.284Z,4.06
2018-03-15T03:10:54.337Z,4.05
2018-03-15T03:13:25.331Z,4.01
2018-03-15T03:15:56.340Z,4.00
2018-03-15T03:18:27.299Z,4.04
2018-03-15T03:20:58.309Z,3.98
2018-03-15T03:23:29.315Z,3.85
2018-03-15T03:26:00.321Z,3.74
2018-03-15T03:28:31.335Z,3.64
2018-03-15T03:31:02.358Z,3.59
2018-03-15T03:33:33.365Z,3.52
2018-03-15T03:36:04.347Z,3.52
2018-03-15T03:38:35.374Z,3.47
2018-03-15T03:41:06.393Z,3.44
2018-03-15T03:43:37.376Z,3.44
2018-03-15T03:46:08.389Z,3.41
2018-03-15T03:48:39.392Z,3.45
2018-03-15T03:51:10.358Z,3.44
2018-03-15T03:53:41.354Z,3.45
2018-03-15T03:56:12.305Z,3.44
2018-03-15T03:58:43.273Z,3.44
2018-03-15T04:01:14.250Z,3.42
2018-03-15T04:03:45.244Z,3.39
2018-03-15T04:06:16.259Z,3.34
2018-03-15T04:08:47.281Z,3.33
2018-03-15T04:11:18.277Z,3.38
2018-03-15T04:13:49.306Z,3.48
2018-03-15T04:16:20.274Z,3.66
2018-03-15T04:18:51.314Z,3.77
2018-03-15T04:21:22.321Z,3.92
2018-03-15T04:23:53.324Z,4.03
2018-03-15T04:26:24.314Z,4.13
2018-03-15T04:28:55.315Z,4.14
2018-03-15T04:31:26.319Z,4.18
2018-03-15T04:33:57.297Z,4.20
2018-03-15T04:36:28.261Z,4.24
2018-03-15T04:38:59.246Z,4.28
2018-03-15T04:41:30.304Z,4.29
2018-03-15T04:44:01.311Z,4.28
2018-03-15T04:46:32.310Z,4.24
2018-03-15T04:49:03.303Z,4.26
2018-03-15T04:51:34.305Z,4.33
2018-03-15T04:54:05.283Z,4.41
2018-03-15T04:56:36.272Z,4.45
2018-03-15T04:59:07.258Z,4.55
2018-03-15T05:01:38.283Z,4.65
2018-03-15T05:04:09.294Z,4.72
2018-03-15T05:06:40.293Z,4.65
2018-03-15T05:09:11.268Z,4.66
2018-03-15T05:11:42.310Z,4.67
2018-03-15T05:14:13.279Z,4.74
2018-03-15T05:16:44.286Z,4.81
2018-03-15T05:19:15.269Z,4.76
2018-03-15T05:21:46.265Z,4.78
2018-03-15T05:24:17.265Z,4.79
2018-03-15T05:26:48.265Z,4.76
2018-03-15T05:29:19.253Z,4.69
2018-03-15T05:31:50.283Z,4.65
2018-03-15T05:34:21.309Z,4.67
2018-03-15T05:36:52.280Z,4.79
2018-03-15T05:39:23.305Z,4.90
2018-03-15T05:41:54.300Z,4.98
2018-03-15T05:44:25.339Z,5.06
2018-03-15T05:46:56.332Z,5.15
2018-03-15T05:49:27.355Z,5.18
2018-03-15T05:51:58.355Z,5.32
2018-03-15T05:54:29.317Z,5.43
2018-03-15T05:57:00.271Z,5.47
2018-03-15T05:59:31.264Z,5.38
2018-03-15T06:02:02.424Z,5.44
2018-03-15T06:04:33.398Z,5.46
2018-03-15T06:07:04.378Z,5.46
2018-03-15T06:09:35.412Z,5.48
2018-03-15T06:12:06.413Z,5.52
2018-03-15T06:14:37.374Z,5.51
2018-03-15T06:17:08.334Z,5.50
2018-03-15T06:19:39.300Z,5.60
2018-03-15T06:22:10.282Z,5.56
2018-03-15T06:24:41.284Z,5.67
2018-03-15T06:27:12.259Z,5.68
2018-03-15T06:29:43.224Z,5.89
2018-03-15T06:32:14.210Z,5.86
2018-03-15T06:34:45.240Z,5.91
2018-03-15T06:37:16.245Z,6.00
2018-03-15T06:39:47.219Z,6.20
2018-03-15T06:42:18.209Z,6.30
2018-03-15T06:44:49.214Z,6.39
2018-03-15T06:47:20.202Z,6.51
2018-03-15T06:49:51.175Z,6.66
2018-03-15T06:52:22.184Z,6.61
2018-03-15T06:54:53.161Z,6.70
2018-03-15T06:57:24.156Z,6.71
2018-03-15T06:59:55.138Z,6.94
2018-03-15T07:02:26.099Z,7.14
2018-03-15T07:04:57.086Z,7.20
2018-03-15T07:07:28.053Z,7.24
2018-03-15T07:09:59.074Z,7.32
2018-03-15T07:12:30.077Z,7.45
2018-03-15T07:15:01.087Z,7.56
2018-03-15T07:17:32.116Z,7.63
2018-03-15T07:20:03.145Z,7.71
2018-03-15T07:22:34.147Z,7.67
2018-03-15T07:25:05.101Z,7.77
2018-03-15T07:27:36.126Z,8.04
2018-03-15T07:30:07.133Z,8.17
2018-03-15T07:32:38.211Z,8.39
2018-03-15T07:35:09.204Z,8.53
2018-03-15T07:37:40.276Z,8.65
2018-03-15T07:40:11.264Z,8.84
2018-03-15T07:42:42.256Z,9.06
2018-03-15T07:45:13.264Z,9.02
2018-03-15T07:47:44.275Z,9.12
2018-03-15T07:50:15.284Z,9.12
2018-03-15T07:52:46.295Z,9.32
2018-03-15T07:55:17.300Z,9.50
2018-03-15T07:57:48.365Z,9.94
2018-03-15T08:00:19.407Z,10.42
2018-03-15T08:02:50.396Z,10.60
2018-03-15T08:05:21.403Z,10.83
2018-03-15T08:07:52.398Z,11.08
2018-03-15T08:10:23.437Z,11.55
2018-03-15T08:12:54.396Z,11.93
2018-03-15T08:15:25.339Z,12.38
2018-03-15T08:17:56.351Z,12.95
2018-03-15T08:20:27.335Z,13.43
2018-03-15T08:22:58.331Z,13.88
2018-03-15T08:25:29.305Z,14.40
2018-03-15T08:28:00.332Z,14.89
2018-03-15T08:30:31.315Z,15.12
2018-03-15T08:33:02.365Z,16.59
2018-03-15T08:35:33.381Z,18.48
2018-03-15T08:38:05.222Z,20.09
2018-03-15T08:40:36.229Z,20.77
2018-03-15T08:43:07.267Z,19.50
2018-03-15T08:45:38.298Z,18.56
2018-03-15T08:48:09.337Z,17.74
2018-03-15T08:50:40.374Z,18.14
2018-03-15T08:53:11.386Z,18.22
2018-03-15T08:55:42.408Z,19.63
2018-03-15T08:58:13.350Z,20.50
2018-03-15T09:00:44.373Z,20.13
2018-03-15T09:03:15.381Z,20.14
2018-03-15T09:05:46.390Z,20.52
2018-03-15T09:08:17.450Z,20.38
2018-03-15T09:10:48.461Z,20.33
2018-03-15T09:13:19.470Z,19.83
2018-03-15T09:15:50.478Z,19.84
2018-03-15T09:18:21.466Z,19.47
2018-03-15T09:20:52.520Z,19.07
2018-03-15T09:23:23.553Z,19.49
2018-03-15T09:25:54.550Z,19.83
2018-03-15T09:28:25.566Z,19.68
2018-03-15T09:30:56.566Z,19.04
2018-03-15T09:33:27.607Z,19.56
2018-03-15T09:35:58.601Z,20.47
2018-03-15T09:38:29.628Z,20.80
2018-03-15T09:41:00.638Z,21.20
2018-03-15T09:43:31.598Z,21.36
2018-03-15T09:46:02.735Z,21.48
2018-03-15T09:48:33.704Z,20.92
2018-03-15T09:51:04.717Z,21.24
2018-03-15T09:53:35.821Z,22.63
2018-03-15T09:56:06.846Z,23.93
2018-03-15T09:58:37.837Z,25.21
2018-03-15T10:01:08.901Z,25.81
2018-03-15T10:03:39.906Z,26.78
2018-03-15T10:06:10.940Z,26.58
2018-03-15T10:08:41.940Z,27.75
2018-03-15T10:11:13.003Z,27.89
2018-03-15T10:13:43.974Z,27.10
2018-03-15T10:16:15.018Z,26.36
2018-03-15T10:18:46.056Z,26.29
2018-03-15T10:21:17.068Z,26.57
2018-03-15T10:23:48.102Z,26.53
2018-03-15T10:26:19.153Z,27.21
2018-03-15T10:28:50.179Z,26.42
2018-03-15T10:31:21.140Z,26.03
2018-03-15T10:33:52.159Z,25.22
2018-03-15T10:36:23.143Z,24.92
2018-03-15T10:38:54.143Z,24.33
2018-03-15T10:41:25.152Z,22.90
2018-03-15T10:43:56.137Z,21.37
2018-03-15T10:46:27.131Z,20.57
2018-03-15T10:48:58.143Z,20.38
2018-03-15T10:51:29.140Z,19.92
2018-03-15T10:54:00.158Z,20.24
2018-03-15T10:56:31.178Z,20.50
2018-03-15T10:59:02.218Z,21.34
2018-03-15T11:01:39.432Z,21.63
2018-03-15T11:04:10.467Z,21.87
2018-03-15T11:06:41.493Z,22.17
2018-03-15T11:09:13.393Z,22.55
2018-03-15T11:11:44.429Z,22.99
2018-03-15T11:14:15.450Z,22.66
2018-03-15T11:16:46.475Z,22.48
2018-03-15T11:19:18.319Z,21.96
2018-03-15T11:21:49.347Z,21.67
2018-03-15T11:24:20.324Z,21.10
2018-03-15T11:26:51.286Z,20.03
2018-03-15T11:29:22.298Z,18.84
2018-03-15T11:31:53.299Z,17.89
2018-03-15T11:34:24.402Z,17.28
2018-03-15T11:36:55.365Z,17.03
2018-03-15T11:39:26.375Z,16.99
2018-03-15T11:41:57.357Z,17.04
2018-03-15T11:44:28.393Z,16.99
2018-03-15T11:46:59.323Z,16.80
2018-03-15T11:49:30.336Z,16.51
2018-03-15T11:52:01.337Z,16.88
2018-03-15T11:54:32.355Z,17.50
2018-03-15T11:57:03.355Z,17.63
2018-03-15T11:59:34.362Z,17.88
2018-03-15T12:02:05.413Z,17.81
2018-03-15T12:04:36.419Z,17.89
2018-03-15T12:07:07.443Z,18.04
2018-03-15T12:09:38.418Z,18.02
2018-03-15T12:12:09.395Z,18.05
2018-03-15T12:14:40.383Z,18.25
2018-03-15T12:17:11.426Z,18.01
2018-03-15T12:19:42.403Z,17.95
2018-03-15T12:22:13.442Z,17.52
2018-03-15T12:24:44.433Z,17.10
2018-03-15T12:27:15.449Z,16.87
2018-03-15T12:29:46.484Z,16.77
2018-03-15T12:32:17.443Z,16.77
2018-03-15T12:34:48.424Z,16.34
2018-03-15T12:37:19.380Z,16.32
2018-03-15T12:39:50.375Z,16.05
2018-03-15T12:42:21.377Z,16.03
2018-03-15T12:44:59.460Z,16.23
2018-03-15T12:47:30.459Z,16.12
2018-03-15T12:50:01.471Z,16.25
2018-03-15T12:52:32.424Z,16.01
2018-03-15T12:55:03.430Z,16.08
2018-03-15T12:57:34.412Z,16.18
2018-03-15T13:00:05.438Z,16.33
2018-03-15T13:02:36.437Z,16.58
2018-03-15T13:05:07.421Z,16.62
2018-03-15T13:07:38.426Z,16.72
2018-03-15T13:10:09.375Z,16.73
2018-03-15T13:12:40.376Z,16.73
2018-03-15T13:15:11.336Z,16.39
2018-03-15T13:17:42.371Z,16.33
2018-03-15T13:20:13.340Z,16.81
2018-03-15T13:22:44.382Z,16.69
2018-03-15T13:25:15.386Z,16.64
2018-03-15T13:27:46.372Z,16.53
2018-03-15T13:30:17.430Z,16.30
2018-03-15T13:32:48.359Z,16.56
2018-03-15T13:35:19.458Z,16.45
2018-03-15T13:37:50.597Z,16.38
2018-03-15T13:40:21.609Z,16.49
2018-03-15T13:42:52.612Z,16.43
2018-03-15T13:45:23.584Z,16.59
2018-03-15T13:47:54.613Z,16.73
2018-03-15T13:50:25.566Z,16.90
2018-03-15T13:52:56.576Z,17.07
2018-03-15T13:55:27.549Z,16.97
2018-03-15T13:57:58.554Z,16.69
2018-03-15T14:00:29.549Z,16.37
2018-03-15T14:03:00.531Z,16.51
2018-03-15T14:05:31.567Z,16.77
2018-03-15T14:08:02.605Z,17.13
2018-03-15T14:10:33.614Z,17.17
2018-03-15T14:13:04.663Z,17.36
2018-03-15T14:15:35.719Z,17.24
2018-03-15T14:18:06.673Z,17.20
2018-03-15T14:20:37.674Z,17.22
2018-03-15T14:23:08.671Z,17.12
2018-03-15T14:25:39.627Z,16.88
2018-03-15T14:28:10.644Z,16.56
2018-03-15T14:30:41.636Z,16.53
2018-03-15T14:33:12.606Z,16.52
2018-03-15T14:35:43.586Z,16.48
2018-03-15T14:38:14.563Z,16.70
2018-03-15T14:40:45.645Z,16.69
2018-03-15T14:43:16.632Z,16.66
2018-03-15T14:45:47.613Z,16.75
2018-03-15T14:48:18.591Z,16.93
2018-03-15T14:50:49.586Z,16.89
2018-03-15T14:53:20.559Z,16.90
2018-03-15T14:55:51.589Z,16.88
2018-03-15T14:58:22.574Z,16.58
2018-03-15T15:00:53.571Z,16.56
2018-03-15T15:03:24.604Z,16.44
2018-03-15T15:05:55.596Z,16.60
2018-03-15T15:08:26.602Z,16.64
2018-03-15T15:10:57.568Z,16.45
2018-03-15T15:13:28.544Z,16.31
2018-03-15T15:15:59.521Z,16.22
2018-03-15T15:18:30.505Z,16.24
2018-03-15T15:21:01.484Z,16.17
2018-03-15T15:23:32.508Z,16.04
2018-03-15T15:26:03.527Z,15.91
2018-03-15T15:28:34.484Z,15.91
2018-03-15T15:31:05.467Z,15.91
2018-03-15T15:33:36.478Z,15.88
2018-03-15T15:36:07.526Z,15.99
2018-03-15T15:38:38.516Z,15.98
2018-03-15T15:41:09.543Z,15.96
2018-03-15T15:43:40.468Z,15.95
2018-03-15T15:46:11.456Z,15.95
2018-03-15T15:48:42.501Z,16.02
2018-03-15T15:51:13.494Z,16.07
2018-03-15T15:53:44.471Z,15.84
2018-03-15T15:56:15.409Z,15.85
2018-03-15T15:58:46.471Z,15.88
2018-03-15T16:01:17.473Z,15.94
2018-03-15T16:03:48.441Z,16.02
2018-03-15T16:06:19.437Z,15.98
2018-03-15T16:08:50.453Z,16.02
2018-03-15T16:11:21.417Z,16.11
2018-03-15T16:13:52.422Z,16.21
2018-03-15T16:16:23.419Z,16.24
2018-03-15T16:18:54.415Z,16.09
2018-03-15T16:21:25.430Z,15.92
2018-03-15T16:23:56.458Z,15.56
2018-03-15T16:26:27.441Z,15.21
2018-03-15T16:28:58.488Z,14.89
2018-03-15T16:31:29.475Z,14.50
2018-03-15T16:34:00.495Z,14.10
2018-03-15T16:36:31.458Z,13.90
2018-03-15T16:39:02.448Z,13.72
2018-03-15T16:41:33.475Z,13.59
2018-03-15T16:44:04.506Z,13.45
2018-03-15T16:46:35.484Z,13.34
2018-03-15T16:49:06.497Z,13.23
2018-03-15T16:51:37.448Z,13.12
2018-03-15T16:54:08.408Z,13.04
2018-03-15T16:56:39.403Z,12.96
2018-03-15T16:59:10.401Z,12.83
2018-03-15T17:01:41.361Z,12.72
2018-03-15T17:04:12.341Z,12.56
2018-03-15T17:06:43.796Z,12.47
2018-03-15T17:09:14.848Z,12.42
2018-03-15T17:11:45.848Z,12.34
2018-03-15T17:14:16.819Z,12.30
2018-03-15T17:16:47.822Z,12.27
2018-03-15T17:19:18.862Z,12.20
2018-03-15T17:21:49.851Z,12.22
2018-03-15T17:24:20.905Z,12.20
2018-03-15T17:26:51.916Z,12.21
2018-03-15T17:29:22.989Z,12.22
2018-03-15T17:31:53.973Z,12.25
2018-03-15T17:34:25.064Z,12.26
2018-03-15T17:36:56.056Z,12.29
2018-03-15T17:39:27.018Z,12.31
2018-03-15T17:41:58.026Z,12.31
2018-03-15T17:44:29.009Z,12.32
2018-03-15T17:47:00.026Z,12.31
2018-03-15T17:49:31.024Z,12.34
2018-03-15T17:52:02.028Z,12.35
2018-03-15T17:54:33.063Z,12.38
2018-03-15T17:57:04.053Z,12.37
2018-03-15T17:59:35.024Z,12.41
2018-03-15T18:02:06.046Z,12.46
2018-03-15T18:04:37.036Z,12.50
2018-03-15T18:07:08.039Z,12.57
2018-03-15T18:09:39.074Z,12.65
2018-03-15T18:12:10.057Z,12.64
2018-03-15T18:14:41.105Z,12.66
2018-03-15T18:17:12.106Z,12.67
2018-03-15T18:19:43.118Z,12.62
2018-03-15T18:22:14.152Z,12.61
2018-03-15T18:24:45.139Z,12.66
2018-03-15T18:27:16.165Z,12.68
2018-03-15T18:29:47.316Z,12.70
2018-03-15T18:32:18.318Z,12.70
2018-03-15T18:34:49.307Z,12.54
2018-03-15T18:37:20.300Z,12.50
2018-03-15T18:39:51.304Z,12.42
2018-03-15T18:42:22.336Z,12.35
2018-03-15T18:44:53.325Z,12.26
2018-03-15T18:47:24.372Z,12.23
2018-03-15T18:49:55.396Z,12.17
2018-03-15T18:52:26.397Z,12.17
2018-03-15T18:54:57.416Z,12.25
2018-03-15T18:57:28.453Z,12.26
2018-03-15T18:59:59.463Z,12.19
2018-03-15T19:02:30.491Z,12.14
2018-03-15T19:05:01.496Z,12.08
2018-03-15T19:07:32.481Z,12.16
2018-03-15T19:10:03.526Z,12.22
2018-03-15T19:12:34.548Z,12.19
2018-03-15T19:15:05.552Z,12.19
2018-03-15T19:17:36.571Z,12.25
2018-03-15T19:20:07.577Z,12.17
2018-03-15T19:22:38.531Z,12.10
2018-03-15T19:25:09.504Z,12.06
2018-03-15T19:27:40.477Z,12.05
2018-03-15T19:30:11.509Z,11.97
2018-03-15T19:32:42.518Z,11.87
2018-03-15T19:35:13.530Z,11.74
2018-03-15T19:37:44.507Z,11.67
2018-03-15T19:40:15.565Z,11.71
2018-03-15T19:42:46.523Z,11.74
2018-03-15T19:45:18.104Z,11.71
2018-03-15T19:47:49.107Z,11.72
2018-03-15T19:50:20.103Z,11.59
2018-03-15T19:52:51.128Z,11.50
2018-03-15T19:55:22.984Z,11.45
2018-03-15T19:57:54.224Z,11.48
2018-03-15T20:00:25.278Z,11.48
2018-03-15T20:02:56.317Z,11.46
2018-03-15T20:05:27.308Z,11.42
2018-03-15T20:07:59.121Z,11.51
2018-03-15T20:10:30.150Z,11.56
2018-03-15T20:13:01.125Z,11.49
2018-03-15T20:15:38.293Z,11.49
2018-03-15T20:18:09.271Z,11.45
2018-03-15T20:20:40.286Z,11.41
2018-03-15T20:23:17.259Z,11.38
2018-03-15T20:25:48.272Z,11.31
2018-03-15T20:28:25.250Z,11.35
2018-03-15T20:30:56.285Z,11.24
2018-03-15T20:33:33.380Z,11.23
2018-03-15T20:36:04.428Z,11.13
2018-03-15T20:38:35.409Z,11.14
2018-03-15T20:41:12.560Z,11.16
2018-03-15T20:43:43.578Z,11.16
2018-03-15T20:46:20.607Z,11.16
2018-03-15T20:48:57.652Z,11.19
2018-03-15T20:54:23.507Z,11.19
2018-03-15T20:56:54.530Z,11.11
2018-03-15T20:59:25.536Z,11.05
2018-03-15T21:01:56.532Z,11.09
2018-03-15T21:04:27.481Z,11.23
2018-03-15T21:06:58.458Z,11.21
2018-03-15T21:09:29.420Z,11.18
2018-03-15T21:12:06.408Z,11.18
2018-03-15T21:14:37.392Z,11.20
2018-03-15T21:17:08.333Z,11.18
2018-03-15T21:19:39.297Z,11.15
2018-03-15T21:22:10.278Z,11.05
2018-03-15T21:24:41.218Z,11.02
2018-03-15T21:27:12.234Z,10.97
2018-03-15T21:29:43.182Z,10.96
2018-03-15T21:32:14.158Z,10.92
2018-03-15T21:34:45.101Z,10.96
2018-03-15T21:37:16.090Z,11.03
2018-03-15T21:39:47.037Z,11.03
2018-03-15T21:42:17.983Z,11.06
2018-03-15T21:44:48.957Z,11.01
2018-03-15T21:47:19.929Z,10.99
2018-03-15T21:49:50.909Z,11.03
2018-03-15T21:52:21.856Z,11.03
2018-03-15T21:54:52.842Z,11.01
2018-03-15T21:57:23.798Z,10.99
2018-03-15T21:59:54.754Z,10.98
2018-03-15T22:02:25.693Z,10.95
2018-03-15T22:04:56.703Z,10.85
2018-03-15T22:07:27.614Z,10.84
2018-03-15T22:09:58.573Z,10.92
2018-03-15T22:12:29.571Z,10.96
2018-03-15T22:15:00.518Z,10.86
2018-03-15T22:17:31.463Z,10.77
2018-03-15T22:20:02.446Z,10.71
2018-03-15T22:22:33.394Z,10.62
2018-03-15T22:25:04.405Z,10.53
2018-03-15T22:27:35.352Z,10.51
2018-03-15T22:30:06.322Z,10.44
2018-03-15T22:32:37.262Z,10.37
2018-03-15T22:35:08.248Z,10.43
2018-03-15T22:37:39.214Z,10.42
2018-03-15T22:40:10.168Z,10.50
2018-03-15T22:42:41.125Z,10.63
2018-03-15T22:45:12.090Z,10.71
2018-03-15T22:47:43.058Z,10.69
2018-03-15T22:50:14.023Z,10.74
2018-03-15T22:52:44.982Z,10.72
2018-03-15T22:55:15.945Z,10.72
2018-03-15T22:57:46.889Z,10.72
2018-03-15T23:00:17.854Z,10.57
2018-03-15T23:02:48.821Z,10.55
2018-03-15T23:05:19.766Z,10.45
2018-03-15T23:07:50.726Z,10.42
2018-03-15T23:10:21.677Z,10.56
2018-03-15T23:12:52.639Z,10.71
2018-03-15T23:15:23.593Z,10.77
2018-03-15T23:17:54.545Z,10.83
2018-03-15T23:20:25.490Z,10.90
2018-03-15T23:22:56.454Z,10.99
2018-03-15T23:25:27.401Z,11.07
2018-03-15T23:27:58.346Z,11.08
2018-03-15T23:30:29.317Z,11.10
2018-03-15T23:33:00.257Z,11.13
2018-03-15T23:35:31.229Z,11.11
2018-03-15T23:38:02.179Z,11.16
2018-03-15T23:40:33.166Z,11.19
2018-03-15T23:43:04.106Z,11.20
2018-03-15T23:45:35.094Z,11.24
2018-03-15T23:48:06.026Z,11.20
2018-03-15T23:50:36.992Z,11.19
2018-03-15T23:53:07.982Z,11.16
2018-03-15T23:55:38.932Z,11.10
2018-03-15T23:58:09.914Z,11.08
